createdAt,value
2018-06-10T00:02:05.941Z,12.87
2018-06-10T00:04:36.743Z,13.47
2018-06-10T00:07:07.589Z,12.37
2018-06-10T00:09:38.331Z,13.07
2018-06-10T00:12:15.136Z,12.80
2018-06-10T00:14:46.060Z,12.67
2018-06-10T00:17:17.291Z,12.80
2018-06-10T00:19:48.486Z,12.37
2018-06-10T00:22:19.636Z,12.90
2018-06-10T00:24:50.502Z,11.97
2018-06-10T00:27:25.256Z,13.30
2018-06-10T00:29:56.307Z,13.90
2018-06-10T00:32:27.556Z,15.37
2018-06-10T00:34:58.650Z,15.63
2018-06-10T00:37:29.720Z,15.10
2018-06-10T00:40:00.777Z,15.87
2018-06-10T00:42:32.007Z,16.77
2018-06-10T00:45:03.012Z,14.73
2018-06-10T00:47:33.962Z,13.50
2018-06-10T00:50:05.151Z,12.67
2018-06-10T00:52:36.246Z,13.27
2018-06-10T00:55:07.173Z,12.43
2018-06-10T00:57:38.283Z,13.93
2018-06-10T01:00:09.224Z,15.13
2018-06-10T01:02:40.254Z,13.77
2018-06-10T01:05:11.160Z,13.87
2018-06-10T01:07:42.305Z,12.77
2018-06-10T01:10:13.317Z,14.03
2018-06-10T01:12:44.374Z,14.33
2018-06-10T01:15:15.364Z,14.13
2018-06-10T01:17:46.300Z,14.60
2018-06-10T01:20:17.433Z,14.90
2018-06-10T01:22:47.917Z,14.47
2018-06-10T01:25:18.941Z,15.10
2018-06-10T01:27:50.292Z,15.13
2018-06-10T01:30:21.743Z,16.37
2018-06-10T01:32:53.038Z,16.40
2018-06-10T01:35:24.207Z,15.93
2018-06-10T01:37:55.353Z,16.07
2018-06-10T01:40:26.504Z,17.30
2018-06-10T01:42:57.493Z,15.03
2018-06-10T01:45:28.713Z,14.27
2018-06-10T01:47:59.961Z,14.60
2018-06-10T01:50:31.479Z,14.67
2018-06-10T01:53:02.468Z,15.20
2018-06-10T01:55:33.592Z,14.00
2018-06-10T01:58:04.784Z,13.37
2018-06-10T02:00:36.226Z,13.43
2018-06-10T02:03:07.151Z,13.67
2018-06-10T02:05:38.222Z,14.13
2018-06-10T02:08:09.588Z,14.53
2018-06-10T02:10:40.950Z,14.60
2018-06-10T02:13:12.185Z,14.67
2018-06-10T02:15:43.369Z,15.07
2018-06-10T02:18:14.484Z,14.37
2018-06-10T02:20:45.449Z,13.40
2018-06-10T02:23:16.572Z,13.80
2018-06-10T02:25:47.705Z,14.33
2018-06-10T02:28:20.052Z,15.57
2018-06-10T02:30:51.417Z,15.33
2018-06-10T02:33:23.468Z,15.37
2018-06-10T02:35:54.621Z,15.43
2018-06-10T02:38:26.520Z,15.03
2018-06-10T02:40:57.682Z,14.77
2018-06-10T02:43:28.948Z,14.23
2018-06-10T02:46:00.169Z,14.63
2018-06-10T02:48:31.419Z,14.40
2018-06-10T02:51:02.661Z,13.93
2018-06-10T02:53:33.758Z,15.13
2018-06-10T02:56:04.860Z,14.07
2018-06-10T02:58:36.076Z,13.27
2018-06-10T03:01:07.410Z,12.73
2018-06-10T03:03:38.642Z,12.00
2018-06-10T03:06:09.823Z,12.20
2018-06-10T03:08:41.026Z,13.47
2018-06-10T03:11:12.583Z,13.13
2018-06-10T03:13:43.847Z,13.43
2018-06-10T03:16:14.999Z,13.90
2018-06-10T03:18:46.164Z,13.03
2018-06-10T03:21:17.186Z,14.60
2018-06-10T03:23:48.305Z,13.23
2018-06-10T03:26:19.499Z,13.33
2018-06-10T03:28:50.735Z,12.80
2018-06-10T03:31:21.944Z,12.20
2018-06-10T03:33:53.169Z,12.77
2018-06-10T03:36:24.357Z,13.93
2018-06-10T03:38:55.402Z,13.53
2018-06-10T03:41:26.296Z,13.30
2018-06-10T03:43:57.527Z,14.47
2018-06-10T03:46:28.781Z,13.57
2018-06-10T03:49:00.033Z,12.77
2018-06-10T03:51:31.063Z,12.77
2018-06-10T03:54:02.185Z,14.40
2018-06-10T03:56:34.035Z,13.40
2018-06-10T03:59:05.207Z,13.60
2018-06-10T04:01:36.394Z,12.30
2018-06-10T04:04:07.514Z,11.87
2018-06-10T04:06:38.841Z,12.13
2018-06-10T04:09:10.245Z,11.37
2018-06-10T04:11:41.824Z,11.67
2018-06-10T04:14:13.261Z,11.63
2018-06-10T04:16:44.635Z,11.23
2018-06-10T04:19:15.909Z,11.73
2018-06-10T04:21:47.053Z,11.23
2018-06-10T04:24:18.358Z,11.63
2018-06-10T04:26:51.589Z,12.20
2018-06-10T04:29:24.599Z,12.80
2018-06-10T04:31:56.074Z,12.33
2018-06-10T04:34:27.600Z,11.87
2018-06-10T04:36:59.217Z,13.10
2018-06-10T04:39:30.502Z,13.30
2018-06-10T04:42:01.651Z,12.83
2018-06-10T04:44:32.298Z,12.70
2018-06-10T04:47:04.435Z,13.10
2018-06-10T04:49:36.700Z,11.93
2018-06-10T04:52:07.765Z,11.77
2018-06-10T04:54:38.852Z,13.17
2018-06-10T04:57:10.009Z,12.33
2018-06-10T04:59:41.134Z,12.87
2018-06-10T05:02:12.513Z,12.20
2018-06-10T05:04:43.686Z,12.60
2018-06-10T05:07:15.246Z,12.17
2018-06-10T05:09:46.349Z,12.63
2018-06-10T05:12:17.614Z,11.97
2018-06-10T05:14:48.923Z,12.03
2018-06-10T05:17:20.539Z,11.77
2018-06-10T05:19:51.954Z,11.40
2018-06-10T05:22:22.933Z,11.60
2018-06-10T05:24:54.166Z,11.87
2018-06-10T05:27:25.716Z,13.03
2018-06-10T05:29:57.046Z,12.30
2018-06-10T05:32:28.309Z,11.93
2018-06-10T05:34:59.519Z,13.07
2018-06-10T05:37:30.693Z,13.47
2018-06-10T05:40:02.159Z,11.53
2018-06-10T05:42:33.525Z,12.93
2018-06-10T05:45:05.083Z,13.03
2018-06-10T05:47:36.524Z,13.23
2018-06-10T05:50:07.819Z,12.77
2018-06-10T05:52:39.875Z,13.53
2018-06-10T05:55:11.327Z,13.03
2018-06-10T05:57:42.550Z,13.43
2018-06-10T06:00:12.774Z,14.17
2018-06-10T06:02:42.919Z,12.57
2018-06-10T06:05:13.607Z,14.83
2018-06-10T06:07:44.574Z,13.57
2018-06-10T06:10:15.200Z,13.37
2018-06-10T06:12:46.116Z,12.50
2018-06-10T06:15:16.817Z,12.83
2018-06-10T06:17:47.536Z,12.63
2018-06-10T06:20:18.199Z,12.67
2018-06-10T06:22:48.955Z,12.37
2018-06-10T06:25:19.667Z,10.90
2018-06-10T06:27:50.364Z,10.32
2018-06-10T06:30:21.138Z,10.00
2018-06-10T06:32:51.911Z,10.38
2018-06-10T06:35:22.676Z,9.63
2018-06-10T06:37:53.382Z,9.98
2018-06-10T06:40:24.226Z,9.40
2018-06-10T06:49:12.620Z,10.32
2018-06-10T06:51:43.439Z,10.13
2018-06-10T06:54:14.145Z,9.38
2018-06-10T06:56:44.903Z,10.13
2018-06-10T06:59:15.625Z,10.28
2018-06-10T07:01:46.435Z,9.25
2018-06-10T07:04:17.161Z,9.30
2018-06-10T07:06:47.821Z,8.98
2018-06-10T07:09:18.553Z,9.40
2018-06-10T07:11:49.228Z,9.45
2018-06-10T07:14:19.991Z,9.25
2018-06-10T07:16:50.595Z,8.23
2018-06-10T07:19:21.366Z,8.05
2018-06-10T07:21:52.119Z,8.30
2018-06-10T07:24:22.893Z,8.95
2018-06-10T07:26:53.598Z,8.30
2018-06-10T07:29:24.304Z,9.08
2018-06-10T07:31:55.072Z,9.43
2018-06-10T07:34:25.747Z,10.35
2018-06-10T07:36:56.524Z,10.15
2018-06-10T07:39:27.259Z,9.38
2018-06-10T07:41:58.027Z,10.82
2018-06-10T07:44:28.729Z,9.05
2018-06-10T07:46:59.412Z,8.38
2018-06-10T07:49:30.185Z,11.75
2018-06-10T07:52:00.924Z,8.48
2018-06-10T07:54:31.636Z,8.58
2018-06-10T07:57:02.381Z,8.60
2018-06-10T07:59:33.058Z,9.80
2018-06-10T08:02:03.844Z,9.80
2018-06-10T08:04:34.535Z,8.88
2018-06-10T08:07:05.172Z,8.00
2018-06-10T08:09:35.963Z,7.60
2018-06-10T08:18:09.713Z,8.17
2018-06-10T08:20:40.420Z,7.78
2018-06-10T08:23:11.135Z,7.70
2018-06-10T08:25:41.815Z,8.30
2018-06-10T08:28:12.431Z,7.70
2018-06-10T08:30:43.178Z,7.60
2018-06-10T08:33:13.855Z,6.43
2018-06-10T08:35:44.489Z,6.10
2018-06-10T08:38:15.118Z,6.33
2018-06-10T08:40:45.870Z,6.43
2018-06-10T08:43:16.582Z,6.22
2018-06-10T08:45:47.371Z,6.40
2018-06-10T08:48:18.103Z,7.43
2018-06-10T08:50:48.821Z,6.77
2018-06-10T08:53:19.596Z,7.12
2018-06-10T08:55:50.338Z,6.55
2018-06-10T08:58:21.087Z,7.20
2018-06-10T09:00:51.825Z,7.40
2018-06-10T09:03:22.508Z,7.90
2018-06-10T09:05:53.245Z,7.40
2018-06-10T09:08:24.051Z,6.90
2018-06-10T09:10:54.701Z,6.53
2018-06-10T09:13:25.453Z,6.70
2018-06-10T09:15:56.119Z,6.30
2018-06-10T09:18:26.904Z,7.07
2018-06-10T09:20:57.575Z,6.40
2018-06-10T09:23:28.246Z,6.40
2018-06-10T09:25:58.894Z,6.67
2018-06-10T09:28:29.642Z,6.72
2018-06-10T09:31:00.371Z,6.30
2018-06-10T09:33:31.203Z,6.20
2018-06-10T09:36:01.776Z,5.58
2018-06-10T09:38:32.592Z,6.05
2018-06-10T09:41:03.300Z,5.78
2018-06-10T09:43:34.136Z,5.55
2018-06-10T09:46:04.880Z,5.50
2018-06-10T09:48:35.601Z,4.72
2018-06-10T09:51:06.401Z,4.70
2018-06-10T09:53:37.195Z,4.70
2018-06-10T09:56:25.336Z,4.65
2018-06-10T09:58:56.086Z,4.90
2018-06-10T10:01:27.048Z,4.92
2018-06-10T10:03:57.727Z,4.87
2018-06-10T10:06:28.394Z,4.78
2018-06-10T10:08:59.117Z,4.42
2018-06-10T10:11:29.780Z,4.28
2018-06-10T10:14:00.674Z,4.35
2018-06-10T10:16:31.323Z,4.80
2018-06-10T10:19:02.004Z,4.45
2018-06-10T10:21:32.772Z,4.80
2018-06-10T10:24:04.469Z,4.47
2018-06-10T10:26:35.204Z,4.62
2018-06-10T10:29:05.973Z,4.53
2018-06-10T10:31:36.674Z,5.12
2018-06-10T10:34:07.411Z,5.03
2018-06-10T10:36:38.183Z,4.87
2018-06-10T10:39:09.100Z,4.92
2018-06-10T10:41:39.870Z,5.05
2018-06-10T10:44:10.629Z,5.42
2018-06-10T10:46:41.364Z,4.75
2018-06-10T10:49:12.116Z,4.60
2018-06-10T10:51:42.778Z,4.28
2018-06-10T10:54:13.475Z,3.92
2018-06-10T10:56:44.192Z,3.87
2018-06-10T10:59:14.852Z,3.45
2018-06-10T11:01:45.500Z,3.72
2018-06-10T11:04:16.275Z,4.30
2018-06-10T11:06:46.936Z,3.70
2018-06-10T11:09:17.691Z,4.10
2018-06-10T11:11:48.392Z,4.17
2018-06-10T11:14:19.018Z,3.77
2018-06-10T11:16:49.820Z,3.80
2018-06-10T11:19:20.448Z,4.10
2018-06-10T11:21:51.186Z,4.03
2018-06-10T11:24:21.831Z,3.83
2018-06-10T11:26:52.549Z,3.50
2018-06-10T11:29:23.267Z,3.87
2018-06-10T11:31:53.930Z,3.85
2018-06-10T11:34:24.697Z,4.22
2018-06-10T11:36:55.340Z,4.20
2018-06-10T11:39:26.113Z,4.12
2018-06-10T11:41:56.887Z,4.58
2018-06-10T11:44:27.538Z,4.03
2018-06-10T11:46:58.297Z,4.28
2018-06-10T11:49:29.058Z,4.65
2018-06-10T11:51:59.806Z,4.33
2018-06-10T11:54:30.500Z,4.37
2018-06-10T11:57:01.260Z,4.20
2018-06-10T11:59:32.008Z,5.00
2018-06-10T12:02:02.776Z,4.92
2018-06-10T12:04:33.547Z,4.53
2018-06-10T12:07:04.149Z,4.25
2018-06-10T12:09:34.779Z,5.20
2018-06-10T12:12:05.438Z,4.92
2018-06-10T12:14:36.175Z,5.22
2018-06-10T12:17:06.848Z,5.58
2018-06-10T12:19:37.553Z,5.28
2018-06-10T12:22:08.279Z,5.10
2018-06-10T12:24:38.960Z,5.72
2018-06-10T12:27:09.760Z,5.30
2018-06-10T12:29:40.414Z,6.08
2018-06-10T12:32:11.091Z,5.72
2018-06-10T12:34:41.785Z,5.75
2018-06-10T12:37:12.468Z,5.42
2018-06-10T12:39:43.243Z,5.75
2018-06-10T12:42:13.898Z,5.85
2018-06-10T12:44:44.736Z,6.03
2018-06-10T12:47:15.423Z,5.60
2018-06-10T12:49:46.075Z,5.85
2018-06-10T12:52:16.734Z,5.83
2018-06-10T12:54:47.469Z,6.00
2018-06-10T12:57:18.099Z,5.95
2018-06-10T12:59:48.792Z,5.33
2018-06-10T13:02:19.551Z,5.92
2018-06-10T13:04:50.324Z,5.60
2018-06-10T13:07:21.028Z,5.62
2018-06-10T13:09:51.764Z,5.72
2018-06-10T13:12:27.211Z,5.70
2018-06-10T13:14:57.946Z,5.15
2018-06-10T13:20:29.956Z,4.60
2018-06-10T13:26:19.383Z,5.60
2018-06-10T13:28:50.307Z,5.40
2018-06-10T13:31:21.171Z,5.58
2018-06-10T13:33:59.385Z,4.87
2018-06-10T13:36:44.547Z,5.58
2018-06-10T13:39:15.664Z,5.80
2018-06-10T13:41:46.601Z,4.92
2018-06-10T13:44:17.732Z,5.50
2018-06-10T13:50:14.966Z,4.75
2018-06-10T13:52:45.722Z,5.15
2018-06-10T13:55:27.978Z,4.90
2018-06-10T13:57:58.767Z,5.00
2018-06-10T14:00:35.229Z,5.37
2018-06-10T14:03:06.154Z,5.17
2018-06-10T14:05:36.868Z,6.00
2018-06-10T14:08:07.571Z,6.10
2018-06-10T14:10:38.353Z,6.42
2018-06-10T14:16:32.495Z,6.62
2018-06-10T14:19:03.574Z,6.87
2018-06-10T14:21:34.554Z,7.15
2018-06-10T14:24:05.906Z,6.85
2018-06-10T14:26:40.859Z,7.25
2018-06-10T14:29:11.630Z,6.60
2018-06-10T14:31:42.670Z,6.58
2018-06-10T14:34:13.511Z,6.87
2018-06-10T14:36:44.595Z,7.15
2018-06-10T14:45:16.570Z,6.20
2018-06-10T14:47:47.374Z,5.78
2018-06-10T14:50:18.131Z,4.17
2018-06-10T14:52:48.839Z,3.40
2018-06-10T14:55:19.955Z,3.90
2018-06-10T14:57:50.730Z,4.25
2018-06-10T15:00:21.594Z,4.20
2018-06-10T15:12:25.597Z,4.83
2018-06-10T15:15:00.776Z,5.95
2018-06-10T15:17:31.743Z,5.87
2018-06-10T15:20:02.743Z,5.40
2018-06-10T15:22:33.555Z,5.45
2018-06-10T15:25:04.746Z,5.85
2018-06-10T15:27:35.757Z,5.33
2018-06-10T15:30:06.832Z,5.35
2018-06-10T15:32:37.771Z,6.05
2018-06-10T15:35:08.662Z,6.42
2018-06-10T15:37:39.600Z,6.28
2018-06-10T15:40:10.277Z,6.42
2018-06-10T15:42:41.022Z,6.35
2018-06-10T15:45:11.979Z,6.78
2018-06-10T15:47:42.692Z,6.87
2018-06-10T15:50:13.437Z,6.50
2018-06-10T15:55:49.603Z,6.03
2018-06-10T15:58:20.326Z,5.97
2018-06-10T16:00:51.423Z,5.85
2018-06-10T16:03:22.410Z,5.95
2018-06-10T16:08:54.179Z,6.25
2018-06-10T16:11:24.915Z,6.03
2018-06-10T16:13:55.777Z,6.28
2018-06-10T16:16:26.604Z,5.95
2018-06-10T16:18:57.316Z,6.08
2018-06-10T16:21:27.661Z,5.33
2018-06-10T16:23:58.255Z,5.37
2018-06-10T16:26:29.124Z,5.05
2018-06-10T16:28:59.955Z,4.97
2018-06-10T16:31:30.628Z,4.92
2018-06-10T16:34:01.540Z,4.87
2018-06-10T16:36:32.367Z,5.08
2018-06-10T16:39:03.124Z,5.15
2018-06-10T16:41:33.723Z,5.08
2018-06-10T16:44:04.420Z,4.60
2018-06-10T16:46:35.240Z,5.40
2018-06-10T16:49:05.839Z,5.67
2018-06-10T16:51:36.594Z,5.10
2018-06-10T16:54:07.453Z,5.10
2018-06-10T16:56:37.694Z,5.40
2018-06-10T16:59:08.367Z,5.42
2018-06-10T17:01:39.558Z,5.00
2018-06-10T17:04:10.520Z,5.47
2018-06-10T17:06:41.520Z,5.20
2018-06-10T17:09:12.471Z,5.22
2018-06-10T17:11:42.600Z,4.95
2018-06-10T17:14:12.796Z,4.85
2018-06-10T17:16:43.687Z,5.03
2018-06-10T17:19:14.488Z,5.15
2018-06-10T17:21:45.586Z,5.22
2018-06-10T17:24:16.370Z,5.00
2018-06-10T17:26:47.156Z,4.62
2018-06-10T17:29:17.982Z,5.37
2018-06-10T17:31:48.615Z,4.87
2018-06-10T17:34:19.438Z,4.85
2018-06-10T17:39:57.222Z,5.25
2018-06-10T17:42:28.001Z,4.85
2018-06-10T17:44:59.154Z,5.30
2018-06-10T17:47:29.862Z,4.72
2018-06-10T17:50:00.895Z,4.97
2018-06-10T17:52:31.609Z,4.92
2018-06-10T17:55:02.813Z,5.08
2018-06-10T17:57:34.040Z,5.20
2018-06-10T18:00:04.822Z,5.55
2018-06-10T18:02:35.037Z,5.45
2018-06-10T18:05:05.757Z,5.55
2018-06-10T18:07:36.292Z,5.75
2018-06-10T18:10:07.087Z,5.67
2018-06-10T18:12:37.944Z,5.60
2018-06-10T18:15:13.828Z,5.65
2018-06-10T18:17:44.561Z,5.50
2018-06-10T18:20:15.246Z,5.62
2018-06-10T18:22:45.958Z,6.28
2018-06-10T18:25:16.946Z,6.08
2018-06-10T18:27:47.785Z,6.37
2018-06-10T18:30:18.665Z,5.85
2018-06-10T18:32:49.354Z,6.35
2018-06-10T18:35:20.263Z,6.70
2018-06-10T18:37:51.268Z,6.45
2018-06-10T18:40:21.946Z,6.45
2018-06-10T18:42:52.579Z,6.83
2018-06-10T18:45:23.511Z,6.55
2018-06-10T18:47:54.256Z,7.12
2018-06-10T18:53:43.575Z,6.65
2018-06-10T18:56:14.504Z,7.08
2018-06-10T18:58:45.225Z,7.80
2018-06-10T19:01:15.924Z,6.87
2018-06-10T19:03:46.634Z,7.60
2018-06-10T19:09:12.108Z,7.20
2018-06-10T19:11:42.746Z,7.42
2018-06-10T19:14:13.423Z,7.83
2018-06-10T19:16:44.367Z,8.07
2018-06-10T19:19:15.371Z,7.70
2018-06-10T19:21:45.632Z,7.90
2018-06-10T19:24:16.181Z,8.23
2018-06-10T19:26:51.353Z,7.90
2018-06-10T19:29:22.197Z,7.60
2018-06-10T19:31:52.939Z,7.80
2018-06-10T19:34:23.617Z,7.87
2018-06-10T19:42:48.874Z,8.10
2018-06-10T19:45:19.980Z,7.80
2018-06-10T19:47:50.654Z,8.00
2018-06-10T19:50:32.860Z,8.73
2018-06-10T19:53:03.929Z,8.60
2018-06-10T19:55:35.231Z,8.17
2018-06-10T19:58:06.314Z,8.83
2018-06-10T20:00:37.399Z,8.80
2018-06-10T20:03:08.723Z,9.10
2018-06-10T20:05:39.732Z,9.17
2018-06-10T20:08:34.565Z,8.90
2018-06-10T20:11:05.675Z,8.57
2018-06-10T20:13:38.031Z,8.93
2018-06-10T20:16:08.880Z,8.60
2018-06-10T20:18:40.171Z,9.00
2018-06-10T20:21:11.005Z,9.93
2018-06-10T20:23:41.739Z,9.50
2018-06-10T20:26:12.548Z,9.33
2018-06-10T20:28:43.276Z,9.03
2018-06-10T20:31:14.049Z,8.90
2018-06-10T20:33:44.804Z,9.37
2018-06-10T20:36:15.611Z,9.80
2018-06-10T20:38:46.221Z,9.23
2018-06-10T20:41:17.089Z,9.17
2018-06-10T20:43:47.829Z,9.17
2018-06-10T20:46:18.590Z,9.17
2018-06-10T20:48:49.466Z,9.83
2018-06-10T20:51:20.318Z,9.77
2018-06-10T20:53:51.122Z,9.50
2018-06-10T20:56:22.006Z,9.87
2018-06-10T20:58:52.747Z,9.83
2018-06-10T21:01:23.652Z,9.83
2018-06-10T21:03:54.597Z,10.03
2018-06-10T21:06:25.836Z,10.23
2018-06-10T21:08:56.603Z,10.30
2018-06-10T21:11:27.328Z,9.33
2018-06-10T21:13:58.148Z,11.17
2018-06-10T21:16:28.877Z,10.53
2018-06-10T21:18:59.681Z,10.73
2018-06-10T21:21:30.399Z,10.77
2018-06-10T21:24:01.083Z,11.13
2018-06-10T21:26:31.447Z,10.30
2018-06-10T21:29:01.919Z,10.13
2018-06-10T21:31:32.731Z,10.63
2018-06-10T21:34:03.435Z,10.83
2018-06-10T21:36:34.130Z,10.80
2018-06-10T21:39:06.907Z,11.13
2018-06-10T21:41:37.724Z,10.27
2018-06-10T21:44:08.501Z,11.20
2018-06-10T21:46:39.304Z,11.00
2018-06-10T21:49:09.996Z,11.80
2018-06-10T21:51:40.731Z,11.77
2018-06-10T21:54:11.644Z,12.17
2018-06-10T21:56:42.409Z,12.57
2018-06-10T21:59:13.188Z,11.47
2018-06-10T22:01:43.987Z,12.37
2018-06-10T22:04:14.743Z,12.20
2018-06-10T22:06:45.569Z,11.80
2018-06-10T22:09:16.336Z,12.17
2018-06-10T22:11:46.990Z,12.23
2018-06-10T22:14:18.128Z,11.93
2018-06-10T22:16:48.669Z,12.70
2018-06-10T22:19:19.634Z,11.80
2018-06-10T22:21:50.679Z,12.50
2018-06-10T22:24:21.850Z,11.20
2018-06-10T22:26:52.672Z,11.37
2018-06-10T22:29:23.454Z,12.40
2018-06-10T22:31:54.502Z,11.90
2018-06-10T22:34:25.603Z,12.20
2018-06-10T22:36:56.492Z,12.70
2018-06-10T22:39:26.762Z,12.37
2018-06-10T22:41:57.794Z,12.57
2018-06-10T22:44:29.116Z,11.87
2018-06-10T22:46:59.862Z,12.70
2018-06-10T22:49:30.783Z,12.90
2018-06-10T22:52:01.894Z,13.43
2018-06-10T22:54:43.730Z,12.70
2018-06-10T22:57:14.561Z,12.63
2018-06-10T22:59:46.808Z,13.00
2018-06-10T23:02:18.009Z,11.60
2018-06-10T23:04:49.187Z,13.40
2018-06-10T23:07:20.349Z,13.80
2018-06-10T23:09:51.641Z,12.53
2018-06-10T23:12:22.415Z,13.07
2018-06-10T23:14:53.535Z,12.77
2018-06-10T23:17:24.761Z,13.37
2018-06-10T23:19:56.076Z,12.70
2018-06-10T23:22:27.287Z,13.20
2018-06-10T23:24:58.512Z,13.57
2018-06-10T23:27:29.491Z,11.63
2018-06-10T23:30:00.199Z,12.57
2018-06-10T23:32:30.907Z,13.60
2018-06-10T23:35:02.096Z,13.23
2018-06-10T23:37:32.914Z,13.80
2018-06-10T23:40:03.980Z,13.77
2018-06-10T23:42:34.711Z,14.17
2018-06-10T23:45:05.876Z,14.20
2018-06-10T23:47:36.518Z,14.60
2018-06-10T23:50:07.684Z,14.63
2018-06-10T23:52:38.830Z,13.37
2018-06-10T23:58:10.344Z,14.37
